createdAt,value
2018-09-10T00:00:55.665Z,1036.27
2018-09-10T00:01:55.657Z,1036.27
2018-09-10T00:02:55.650Z,1036.3
2018-09-10T00:03:55.643Z,1036.29
2018-09-10T00:04:55.636Z,1036.29
2018-09-10T00:05:55.628Z,1036.29
2018-09-10T00:06:55.622Z,1036.27
2018-09-10T00:07:55.615Z,1036.25
2018-09-10T00:08:55.606Z,1036.29
2018-09-10T00:09:55.599Z,1036.29
2018-09-10T00:10:55.597Z,1036.29
2018-09-10T00:11:55.585Z,1036.31
2018-09-10T00:12:55.578Z,1036.31
2018-09-10T00:13:55.571Z,1036.34
2018-09-10T00:14:55.564Z,1036.35
2018-09-10T00:15:55.555Z,1036.33
2018-09-10T00:16:55.548Z,1036.31
2018-09-10T00:17:55.543Z,1036.28
2018-09-10T00:18:55.534Z,1036.32
2018-09-10T00:19:55.527Z,1036.3
2018-09-10T00:20:55.520Z,1036.31
2018-09-10T00:21:55.512Z,1036.32
2018-09-10T00:22:55.508Z,1036.28
2018-09-10T00:23:55.497Z,1036.29
2018-09-10T00:24:55.490Z,1036.29
2018-09-10T00:25:55.483Z,1036.27
2018-09-10T00:26:55.475Z,1036.31
2018-09-10T00:27:55.468Z,1036.33
2018-09-10T00:28:55.461Z,1036.33
2018-09-10T00:29:55.453Z,1036.3
2018-09-10T00:30:55.449Z,1036.3
2018-09-10T00:31:55.445Z,1036.34
2018-09-10T00:32:55.432Z,1036.32
2018-09-10T00:33:55.423Z,1036.31
2018-09-10T00:34:55.416Z,1036.36
2018-09-10T00:35:55.408Z,1036.35
2018-09-10T00:36:55.401Z,1036.37
2018-09-10T00:37:55.393Z,1036.35
2018-09-10T00:38:55.386Z,1036.38
2018-09-10T00:39:55.379Z,1036.39
2018-09-10T00:40:55.372Z,1036.37
2018-09-10T00:41:55.366Z,1036.36
2018-09-10T00:42:55.356Z,1036.35
2018-09-10T00:43:55.350Z,1036.42
2018-09-10T00:44:55.340Z,1036.44
2018-09-10T00:45:55.334Z,1036.41
2018-09-10T00:46:55.331Z,1036.43
2018-09-10T00:47:55.320Z,1036.41
2018-09-10T00:48:55.315Z,1036.44
2018-09-10T00:49:55.304Z,1036.49
2018-09-10T00:50:55.297Z,1036.48
2018-09-10T00:51:55.289Z,1036.48
2018-09-10T00:52:55.281Z,1036.48
2018-09-10T00:53:55.274Z,1036.48
2018-09-10T00:54:55.267Z,1036.49
2018-09-10T00:55:55.258Z,1036.52
2018-09-10T00:56:55.252Z,1036.56
2018-09-10T00:57:55.248Z,1036.52
2018-09-10T00:58:55.236Z,1036.52
2018-09-10T00:59:55.228Z,1036.55
2018-09-10T01:00:55.232Z,1036.53
2018-09-10T01:01:55.215Z,1036.5
2018-09-10T01:02:55.210Z,1036.49
2018-09-10T01:03:55.206Z,1036.49
2018-09-10T01:04:55.191Z,1036.5
2018-09-10T01:05:55.184Z,1036.48
2018-09-10T01:06:55.175Z,1036.5
2018-09-10T01:07:55.168Z,1036.52
2018-09-10T01:08:55.166Z,1036.53
2018-09-10T01:09:55.156Z,1036.5
2018-09-10T01:10:55.145Z,1036.49
2018-09-10T01:11:55.138Z,1036.51
2018-09-10T01:12:55.131Z,1036.5
2018-09-10T01:13:55.123Z,1036.52
2018-09-10T01:14:55.114Z,1036.48
2018-09-10T01:15:55.108Z,1036.5
2018-09-10T01:16:55.102Z,1036.46
2018-09-10T01:17:55.092Z,1036.49
2018-09-10T01:18:55.084Z,1036.47
2018-09-10T01:19:55.077Z,1036.48
2018-09-10T01:20:55.069Z,1036.48
2018-09-10T01:21:55.061Z,1036.42
2018-09-10T01:22:55.059Z,1036.4
2018-09-10T01:23:55.046Z,1036.42
2018-09-10T01:24:55.039Z,1036.38
2018-09-10T01:25:55.031Z,1036.4
2018-09-10T01:26:55.024Z,1036.38
2018-09-10T01:27:55.020Z,1036.37
2018-09-10T01:28:55.008Z,1036.36
2018-09-10T01:29:55.000Z,1036.37
2018-09-10T01:30:54.993Z,1036.39
2018-09-10T01:31:54.986Z,1036.39
2018-09-10T01:32:54.977Z,1036.39
2018-09-10T01:33:54.970Z,1036.43
2018-09-10T01:34:54.963Z,1036.41
2018-09-10T01:35:54.954Z,1036.4
2018-09-10T01:36:54.949Z,1036.42
2018-09-10T01:37:54.939Z,1036.4
2018-09-10T01:38:54.932Z,1036.42
2018-09-10T01:39:54.924Z,1036.42
2018-09-10T01:40:54.916Z,1036.4
2018-09-10T01:41:54.908Z,1036.45
2018-09-10T01:42:54.901Z,1036.46
2018-09-10T01:43:54.892Z,1036.44
2018-09-10T01:44:54.885Z,1036.41
2018-09-10T01:45:54.878Z,1036.44
2018-09-10T01:46:54.869Z,1036.43
2018-09-10T01:47:54.861Z,1036.45
2018-09-10T01:48:54.854Z,1036.47
2018-09-10T01:49:54.847Z,1036.46
2018-09-10T01:50:54.838Z,1036.44
2018-09-10T01:51:54.835Z,1036.45
2018-09-10T01:52:54.823Z,1036.41
2018-09-10T01:53:54.816Z,1036.43
2018-09-10T01:54:54.811Z,1036.41
2018-09-10T01:55:54.799Z,1036.36
2018-09-10T01:56:54.792Z,1036.38
2018-09-10T01:57:54.783Z,1036.33
2018-09-10T01:58:54.779Z,1036.32
2018-09-10T01:59:54.768Z,1036.21
2018-09-10T02:00:54.764Z,1036.16
2018-09-10T02:01:54.756Z,1036.11
2018-09-10T02:02:54.744Z,1036.12
2018-09-10T02:03:54.737Z,1036.1
2018-09-10T02:04:54.732Z,1036.1
2018-09-10T02:05:54.721Z,1036.1
2018-09-10T02:06:54.714Z,1036.11
2018-09-10T02:07:54.706Z,1036.07
2018-09-10T02:08:54.698Z,1036.05
2018-09-10T02:09:54.690Z,1036.01
2018-09-10T02:10:54.682Z,1035.97
2018-09-10T02:11:54.674Z,1035.91
2018-09-10T02:12:54.673Z,1035.88
2018-09-10T02:13:54.659Z,1035.88
2018-09-10T02:14:54.651Z,1035.89
2018-09-10T02:15:54.643Z,1035.86
2018-09-10T02:16:54.638Z,1035.87
2018-09-10T02:17:54.629Z,1035.83
2018-09-10T02:18:54.624Z,1035.82
2018-09-10T02:19:54.612Z,1035.79
2018-09-10T02:20:54.605Z,1035.79
2018-09-10T02:21:54.597Z,1035.75
2018-09-10T02:22:54.591Z,1035.75
2018-09-10T02:23:54.582Z,1035.71
2018-09-10T02:24:54.582Z,1035.71
2018-09-10T02:25:54.569Z,1035.68
2018-09-10T02:26:54.559Z,1035.69
2018-09-10T02:27:54.689Z,1035.67
2018-09-10T02:28:54.548Z,1035.71
2018-09-10T02:29:54.537Z,1035.7
2018-09-10T02:30:54.529Z,1035.7
2018-09-10T02:31:54.521Z,1035.7
2018-09-10T02:32:54.514Z,1035.68
2018-09-10T02:33:54.507Z,1035.69
2018-09-10T02:34:54.499Z,1035.64
2018-09-10T02:35:54.492Z,1035.67
2018-09-10T02:36:54.484Z,1035.63
2018-09-10T02:37:54.477Z,1035.62
2018-09-10T02:38:54.468Z,1035.64
2018-09-10T02:39:54.461Z,1035.62
2018-09-10T02:40:54.454Z,1035.62
2018-09-10T02:41:54.446Z,1035.64
2018-09-10T02:42:54.438Z,1035.64
2018-09-10T02:43:54.432Z,1035.6
2018-09-10T02:44:54.430Z,1035.64
2018-09-10T02:45:54.416Z,1035.61
2018-09-10T02:46:54.409Z,1035.59
2018-09-10T02:47:54.403Z,1035.6
2018-09-10T02:48:54.396Z,1035.58
2018-09-10T02:49:54.387Z,1035.59
2018-09-10T02:50:54.382Z,1035.54
2018-09-10T02:51:54.373Z,1035.55
2018-09-10T02:52:54.364Z,1035.54
2018-09-10T02:53:54.357Z,1035.54
2018-09-10T02:54:54.351Z,1035.58
2018-09-10T02:55:54.344Z,1035.6
2018-09-10T02:56:54.336Z,1035.59
2018-09-10T02:57:54.328Z,1035.58
2018-09-10T02:58:54.322Z,1035.56
2018-09-10T02:59:54.314Z,1035.53
2018-09-10T03:00:54.308Z,1035.51
2018-09-10T03:01:54.301Z,1035.54
2018-09-10T03:02:54.300Z,1035.54
2018-09-10T03:03:54.288Z,1035.49
2018-09-10T03:04:54.279Z,1035.5
2018-09-10T03:05:54.272Z,1035.53
2018-09-10T03:06:54.266Z,1035.51
2018-09-10T03:07:54.258Z,1035.54
2018-09-10T03:08:54.250Z,1035.53
2018-09-10T03:09:54.248Z,1035.54
2018-09-10T03:10:54.236Z,1035.52
2018-09-10T03:11:54.229Z,1035.51
2018-09-10T03:12:54.222Z,1035.53
2018-09-10T03:13:54.215Z,1035.52
2018-09-10T03:14:54.207Z,1035.5
2018-09-10T03:15:54.200Z,1035.48
2018-09-10T03:16:54.194Z,1035.47
2018-09-10T03:17:54.208Z,1035.45
2018-09-10T03:18:54.179Z,1035.43
2018-09-10T03:19:54.172Z,1035.44
2018-09-10T03:20:54.166Z,1035.43
2018-09-10T03:21:54.158Z,1035.48
2018-09-10T03:22:54.152Z,1035.46
2018-09-10T03:23:54.156Z,1035.46
2018-09-10T03:24:54.138Z,1035.44
2018-09-10T03:25:54.142Z,1035.47
2018-09-10T03:26:54.126Z,1035.52
2018-09-10T03:27:54.118Z,1035.48
2018-09-10T03:28:54.109Z,1035.48
2018-09-10T03:29:54.100Z,1035.52
2018-09-10T03:30:54.101Z,1035.51
2018-09-10T03:31:54.088Z,1035.54
2018-09-10T03:32:54.079Z,1035.52
2018-09-10T03:33:54.074Z,1035.56
2018-09-10T03:34:54.066Z,1035.61
2018-09-10T03:35:54.059Z,1035.61
2018-09-10T03:36:54.054Z,1035.62
2018-09-10T03:37:54.044Z,1035.64
2018-09-10T03:38:54.040Z,1035.71
2018-09-10T03:39:54.030Z,1035.76
2018-09-10T03:40:54.024Z,1035.78
2018-09-10T03:41:54.015Z,1035.77
2018-09-10T03:42:54.009Z,1035.77
2018-09-10T03:43:54.001Z,1035.75
2018-09-10T03:44:53.994Z,1035.75
2018-09-10T03:45:53.986Z,1035.79
2018-09-10T03:46:53.980Z,1035.8
2018-09-10T03:47:53.972Z,1035.77
2018-09-10T03:48:53.966Z,1035.77
2018-09-10T03:49:53.958Z,1035.76
2018-09-10T03:50:53.951Z,1035.8
2018-09-10T03:51:53.944Z,1035.8
2018-09-10T03:52:53.936Z,1035.8
2018-09-10T03:53:53.929Z,1035.77
2018-09-10T03:54:53.922Z,1035.83
2018-09-10T03:55:53.914Z,1035.78
2018-09-10T03:56:53.907Z,1035.82
2018-09-10T03:57:53.900Z,1035.84
2018-09-10T03:58:53.892Z,1035.85
2018-09-10T03:59:53.887Z,1035.84
2018-09-10T04:00:53.877Z,1035.82
2018-09-10T04:01:53.870Z,1035.84
2018-09-10T04:02:53.862Z,1035.82
2018-09-10T04:03:53.855Z,1035.82
2018-09-10T04:04:53.848Z,1035.84
2018-09-10T04:05:53.840Z,1035.84
2018-09-10T04:06:53.833Z,1035.83
2018-09-10T04:07:53.827Z,1035.85
2018-09-10T04:08:53.818Z,1035.84
2018-09-10T04:09:53.810Z,1035.82
2018-09-10T04:10:53.802Z,1035.83
2018-09-10T04:11:53.796Z,1035.83
2018-09-10T04:12:53.788Z,1035.84
2018-09-10T04:13:53.780Z,1035.82
2018-09-10T04:14:53.772Z,1035.82
2018-09-10T04:15:53.765Z,1035.78
2018-09-10T04:16:53.758Z,1035.82
2018-09-10T04:17:53.751Z,1035.8
2018-09-10T04:18:53.743Z,1035.77
2018-09-10T04:19:53.735Z,1035.77
2018-09-10T04:20:53.727Z,1035.78
2018-09-10T04:21:53.720Z,1035.78
2018-09-10T04:22:53.713Z,1035.77
2018-09-10T04:23:53.706Z,1035.83
2018-09-10T04:24:53.697Z,1035.79
2018-09-10T04:25:53.737Z,1035.8
2018-09-10T04:26:53.683Z,1035.8
2018-09-10T04:27:53.676Z,1035.78
2018-09-10T04:28:53.669Z,1035.75
2018-09-10T04:29:53.661Z,1035.74
2018-09-10T04:30:53.654Z,1035.75
2018-09-10T04:31:53.645Z,1035.7
2018-09-10T04:32:53.657Z,1035.68
2018-09-10T04:33:53.632Z,1035.69
2018-09-10T04:34:53.626Z,1035.68
2018-09-10T04:35:53.623Z,1035.7
2018-09-10T04:36:53.610Z,1035.67
2018-09-10T04:37:53.603Z,1035.7
2018-09-10T04:38:53.595Z,1035.67
2018-09-10T04:39:53.590Z,1035.71
2018-09-10T04:40:53.581Z,1035.72
2018-09-10T04:41:53.581Z,1035.67
2018-09-10T04:42:53.566Z,1035.64
2018-09-10T04:43:53.558Z,1035.59
2018-09-10T04:44:53.552Z,1035.55
2018-09-10T04:45:53.544Z,1035.52
2018-09-10T04:46:53.537Z,1035.53
2018-09-10T04:47:53.531Z,1035.51
2018-09-10T04:48:53.523Z,1035.51
2018-09-10T04:49:53.623Z,1035.51
2018-09-10T04:50:53.507Z,1035.49
2018-09-10T04:51:53.501Z,1035.43
2018-09-10T04:52:53.494Z,1035.37
2018-09-10T04:53:53.486Z,1035.32
2018-09-10T04:54:53.479Z,1035.17
2018-09-10T04:55:53.472Z,1035.01
2018-09-10T04:56:53.468Z,1034.79
2018-09-10T04:57:53.458Z,1034.66
2018-09-10T04:58:53.451Z,1034.5
2018-09-10T04:59:53.445Z,1034.33
2018-09-10T05:00:53.440Z,1034.18
2018-09-10T05:01:53.430Z,1034.01
2018-09-10T05:02:53.424Z,1034.05
2018-09-10T05:03:53.418Z,1034.06
2018-09-10T05:04:53.415Z,1033.99
2018-09-10T05:05:53.405Z,1033.85
2018-09-10T05:06:53.399Z,1033.77
2018-09-10T05:07:53.392Z,1033.67
2018-09-10T05:08:53.387Z,1033.47
2018-09-10T05:09:53.414Z,1033.4
2018-09-10T05:10:53.374Z,1033.38
2018-09-10T05:11:53.371Z,1033.46
2018-09-10T05:12:53.411Z,1033.57
2018-09-10T05:13:53.361Z,1033.65
2018-09-10T05:14:53.354Z,1033.71
2018-09-10T05:15:53.348Z,1033.68
2018-09-10T05:16:53.342Z,1033.74
2018-09-10T05:17:53.337Z,1033.74
2018-09-10T05:18:53.331Z,1033.78
2018-09-10T05:19:53.326Z,1033.8
2018-09-10T05:20:53.321Z,1033.79
2018-09-10T05:21:53.376Z,1033.8
2018-09-10T05:22:53.310Z,1033.75
2018-09-10T05:23:53.305Z,1033.75
2018-09-10T05:24:53.301Z,1033.72
2018-09-10T05:25:53.296Z,1033.7
2018-09-10T05:26:53.293Z,1033.63
2018-09-10T05:27:53.285Z,1033.53
2018-09-10T05:28:53.282Z,1033.44
2018-09-10T05:29:53.279Z,1033.42
2018-09-10T05:30:53.270Z,1033.41
2018-09-10T05:31:53.266Z,1033.33
2018-09-10T05:32:53.262Z,1033.33
2018-09-10T05:33:53.256Z,1033.27
2018-09-10T05:34:53.254Z,1033.25
2018-09-10T05:35:53.247Z,1033.23
2018-09-10T05:36:53.243Z,1033.22
2018-09-10T05:37:53.237Z,1033.2
2018-09-10T05:38:53.233Z,1033.2
2018-09-10T05:39:53.228Z,1033.2
2018-09-10T05:40:53.224Z,1033.19
2018-09-10T05:41:53.219Z,1033.15
2018-09-10T05:42:53.215Z,1033.09
2018-09-10T05:43:53.211Z,1033.03
2018-09-10T05:44:53.206Z,1032.99
2018-09-10T05:45:53.201Z,1032.9
2018-09-10T05:46:53.198Z,1032.87
2018-09-10T05:47:53.194Z,1032.89
2018-09-10T05:48:53.189Z,1032.88
2018-09-10T05:49:53.185Z,1032.69
2018-09-10T05:50:53.181Z,1032.64
2018-09-10T05:51:53.177Z,1032.6
2018-09-10T05:52:53.172Z,1032.58
2018-09-10T05:53:53.169Z,1032.59
2018-09-10T05:54:53.165Z,1032.6
2018-09-10T05:55:53.161Z,1032.71
2018-09-10T05:56:53.164Z,1032.77
2018-09-10T05:57:53.154Z,1032.79
2018-09-10T05:58:53.150Z,1032.93
2018-09-10T05:59:53.145Z,1033.01
2018-09-10T06:00:53.143Z,1032.98
2018-09-10T06:01:53.139Z,1033.02
2018-09-10T06:02:53.135Z,1033.1
2018-09-10T06:03:53.132Z,1033.13
2018-09-10T06:04:53.128Z,1033.17
2018-09-10T06:05:53.125Z,1033.24
2018-09-10T06:06:53.120Z,1033.27
2018-09-10T06:07:53.116Z,1033.25
2018-09-10T06:08:53.113Z,1033.33
2018-09-10T06:09:53.109Z,1033.31
2018-09-10T06:10:53.106Z,1033.35
2018-09-10T06:11:53.102Z,1033.35
2018-09-10T06:12:53.099Z,1033.34
2018-09-10T06:13:53.096Z,1033.33
2018-09-10T06:14:53.092Z,1033.26
2018-09-10T06:15:53.091Z,1033.19
2018-09-10T06:16:53.084Z,1033.06
2018-09-10T06:17:53.086Z,1033.07
2018-09-10T06:18:53.076Z,1033.08
2018-09-10T06:19:53.073Z,1033.1
2018-09-10T06:20:53.076Z,1033.08
2018-09-10T06:21:53.065Z,1033.06
2018-09-10T06:22:53.062Z,1033.04
2018-09-10T06:23:53.058Z,1033.06
2018-09-10T06:24:53.055Z,1033.05
2018-09-10T06:25:53.052Z,1033.07
2018-09-10T06:26:53.048Z,1033.02
2018-09-10T06:27:53.043Z,1032.87
2018-09-10T06:28:53.039Z,1032.43
2018-09-10T06:29:53.035Z,1032.05
2018-09-10T06:30:53.032Z,1031.63
2018-09-10T06:31:53.029Z,1031.25
2018-09-10T06:32:53.025Z,1030.89
2018-09-10T06:33:53.027Z,1030.84
2018-09-10T06:34:53.020Z,1030.64
2018-09-10T06:35:53.016Z,1030.53
2018-09-10T06:36:53.014Z,1030.47
2018-09-10T06:37:53.012Z,1030.45
2018-09-10T06:38:53.013Z,1030.62
2018-09-10T06:39:53.007Z,1030.75
2018-09-10T06:40:53.005Z,1030.79
2018-09-10T06:41:53.004Z,1030.69
2018-09-10T06:42:53.001Z,1030.6
2018-09-10T06:43:52.999Z,1030.27
2018-09-10T06:44:52.997Z,1029.88
2018-09-10T06:45:52.997Z,1029.62
2018-09-10T06:46:52.995Z,1029.26
2018-09-10T06:47:53.089Z,1028.99
2018-09-10T06:48:52.994Z,1028.79
2018-09-10T06:49:52.994Z,1028.58
2018-09-10T06:51:52.994Z,1028.24
2018-09-10T06:52:52.997Z,1028.15
2018-09-10T06:53:52.995Z,1028.01
2018-09-10T06:54:52.997Z,1027.92
2018-09-10T06:55:53.009Z,1027.86
2018-09-10T06:56:53.002Z,1027.74
2018-09-10T06:57:53.006Z,1027.67
2018-09-10T06:58:53.007Z,1027.54
2018-09-10T06:59:53.011Z,1027.46
2018-09-10T07:00:53.016Z,1027.35
2018-09-10T07:01:53.019Z,1027.4
2018-09-10T07:02:53.023Z,1027.33
2018-09-10T07:03:53.028Z,1027.37
2018-09-10T07:04:53.032Z,1027.27
2018-09-10T07:05:53.041Z,1027.15
2018-09-10T07:06:53.044Z,1027.16
2018-09-10T07:07:53.050Z,1027.26
2018-09-10T07:08:53.057Z,1027.21
2018-09-10T07:09:53.063Z,1027.18
2018-09-10T07:10:53.070Z,1027.09
2018-09-10T07:11:53.077Z,1027.11
2018-09-10T07:12:53.206Z,1027.03
2018-09-10T07:13:53.090Z,1026.99
2018-09-10T07:14:53.098Z,1027.02
2018-09-10T07:15:53.106Z,1027.1
2018-09-10T07:16:53.116Z,1027.14
2018-09-10T07:17:53.122Z,1027.08
2018-09-10T07:18:53.246Z,1027.05
2018-09-10T07:19:53.137Z,1026.94
2018-09-10T07:20:53.151Z,1026.72
2018-09-10T07:21:53.154Z,1026.52
2018-09-10T07:22:53.164Z,1026.41
2018-09-10T07:23:53.174Z,1026.24
2018-09-10T07:24:53.182Z,1026.09
2018-09-10T07:25:53.192Z,1026
2018-09-10T07:26:53.201Z,1026
2018-09-10T07:27:53.211Z,1025.96
2018-09-10T07:28:53.220Z,1025.78
2018-09-10T07:29:53.232Z,1025.7
2018-09-10T07:30:53.242Z,1025.64
2018-09-10T07:31:53.251Z,1025.62
2018-09-10T07:32:53.263Z,1025.62
2018-09-10T07:33:53.273Z,1025.64
2018-09-10T07:34:53.283Z,1025.61
2018-09-10T07:35:53.295Z,1025.57
2018-09-10T07:36:53.306Z,1025.49
2018-09-10T07:37:53.318Z,1025.42
2018-09-10T07:38:53.329Z,1025.37
2018-09-10T07:39:53.341Z,1025.4
2018-09-10T07:40:53.354Z,1025.42
2018-09-10T07:41:53.371Z,1025.41
2018-09-10T07:42:53.376Z,1025.36
2018-09-10T07:43:53.481Z,1025.32
2018-09-10T07:44:53.400Z,1025.45
2018-09-10T07:45:53.412Z,1025.67
2018-09-10T07:46:53.423Z,1025.83
2018-09-10T07:47:53.436Z,1025.95
2018-09-10T07:48:53.531Z,1026.07
2018-09-10T07:49:53.458Z,1026.11
2018-09-10T07:50:53.470Z,1026.21
2018-09-10T07:51:53.481Z,1026.28
2018-09-10T07:52:53.495Z,1026.41
2018-09-10T07:53:53.503Z,1026.66
2018-09-10T07:54:53.514Z,1026.84
2018-09-10T07:55:53.525Z,1026.86
2018-09-10T07:56:53.536Z,1026.86
2018-09-10T07:57:53.548Z,1026.86
2018-09-10T07:58:53.558Z,1026.84
2018-09-10T07:59:53.568Z,1026.86
2018-09-10T08:00:53.579Z,1026.93
2018-09-10T08:01:53.593Z,1026.93
2018-09-10T08:02:53.659Z,1026.93
2018-09-10T08:03:53.611Z,1026.99
2018-09-10T08:04:53.622Z,1026.98
2018-09-10T08:05:53.632Z,1026.98
2018-09-10T08:06:53.649Z,1026.95
2018-09-10T08:07:53.651Z,1026.92
2018-09-10T08:08:53.661Z,1026.96
2018-09-10T08:09:53.671Z,1027.09
2018-09-10T08:10:53.680Z,1027.35
2018-09-10T08:11:53.694Z,1027.79
2018-09-10T08:12:53.709Z,1028.3
2018-09-10T08:13:53.709Z,1028.67
2018-09-10T08:14:53.719Z,1029
2018-09-10T08:15:53.736Z,1029.33
2018-09-10T08:16:53.738Z,1029.68
2018-09-10T08:17:53.744Z,1029.9
2018-09-10T08:18:53.752Z,1030.11
2018-09-10T08:19:53.760Z,1030.31
2018-09-10T08:20:53.768Z,1030.47
2018-09-10T08:21:53.774Z,1030.62
2018-09-10T08:22:53.781Z,1030.8
2018-09-10T08:23:53.788Z,1030.85
2018-09-10T08:24:53.795Z,1030.95
2018-09-10T08:25:53.799Z,1031.11
2018-09-10T08:26:53.805Z,1031.13
2018-09-10T08:27:53.812Z,1031.28
2018-09-10T08:28:53.816Z,1031.36
2018-09-10T08:29:53.821Z,1031.42
2018-09-10T08:30:53.827Z,1031.48
2018-09-10T08:31:53.832Z,1031.5
2018-09-10T08:32:53.834Z,1031.64
2018-09-10T08:33:53.838Z,1031.66
2018-09-10T08:34:53.842Z,1031.69
2018-09-10T08:35:53.846Z,1031.74
2018-09-10T08:36:53.849Z,1031.78
2018-09-10T08:37:53.852Z,1031.78
2018-09-10T08:38:53.856Z,1031.78
2018-09-10T08:39:53.857Z,1031.78
2018-09-10T08:40:53.861Z,1031.82
2018-09-10T08:41:53.863Z,1031.76
2018-09-10T08:42:53.948Z,1031.77
2018-09-10T08:43:53.867Z,1031.81
2018-09-10T08:44:53.870Z,1031.81
2018-09-10T08:45:53.873Z,1031.83
2018-09-10T08:46:53.875Z,1031.82
2018-09-10T08:47:53.876Z,1031.77
2018-09-10T08:48:53.878Z,1031.78
2018-09-10T08:49:53.881Z,1031.8
2018-09-10T08:50:53.882Z,1031.81
2018-09-10T08:51:53.889Z,1031.79
2018-09-10T08:52:53.889Z,1031.83
2018-09-10T08:53:53.917Z,1031.77
2018-09-10T08:54:54.329Z,1031.77
2018-09-10T08:55:54.067Z,1031.79
2018-09-10T08:56:53.892Z,1031.78
2018-09-10T08:57:53.894Z,1031.74
2018-09-10T08:58:53.895Z,1031.73
2018-09-10T08:59:53.896Z,1031.71
2018-09-10T09:00:53.898Z,1031.69
2018-09-10T09:01:53.904Z,1031.71
2018-09-10T09:02:53.901Z,1031.67
2018-09-10T09:03:53.902Z,1031.64
2018-09-10T09:04:53.905Z,1031.67
2018-09-10T09:05:53.945Z,1031.62
2018-09-10T09:06:53.908Z,1031.56
2018-09-10T09:07:53.917Z,1031.5
2018-09-10T09:08:53.910Z,1031.45
2018-09-10T09:09:53.912Z,1031.43
2018-09-10T09:10:53.913Z,1031.4
2018-09-10T09:11:53.914Z,1031.27
2018-09-10T09:12:53.915Z,1031.21
2018-09-10T09:13:53.920Z,1031.1
2018-09-10T09:14:53.919Z,1031.07
2018-09-10T09:15:53.928Z,1030.97
2018-09-10T09:16:53.922Z,1030.88
2018-09-10T09:17:53.924Z,1030.73
2018-09-10T09:18:53.927Z,1030.57
2018-09-10T09:19:53.929Z,1030.44
2018-09-10T09:20:53.931Z,1030.39
2018-09-10T09:21:53.934Z,1030.19
2018-09-10T09:22:53.936Z,1030.07
2018-09-10T09:23:53.938Z,1029.91
2018-09-10T09:24:53.941Z,1029.78
2018-09-10T09:25:53.943Z,1029.67
2018-09-10T09:26:53.946Z,1029.61
2018-09-10T09:27:53.950Z,1029.51
2018-09-10T09:28:53.958Z,1029.46
2018-09-10T09:29:54.027Z,1029.41
2018-09-10T09:30:53.958Z,1029.3
2018-09-10T09:31:53.962Z,1029.29
2018-09-10T09:32:53.969Z,1029.26
2018-09-10T09:33:53.970Z,1029.27
2018-09-10T09:34:53.973Z,1029.2
2018-09-10T09:35:53.978Z,1029.12
2018-09-10T09:36:53.982Z,1029.06
2018-09-10T09:37:53.989Z,1029.09
2018-09-10T09:38:53.994Z,1029.11
2018-09-10T09:39:53.995Z,1029.11
2018-09-10T09:40:54.000Z,1029.06
2018-09-10T09:41:54.004Z,1029.13
2018-09-10T09:42:54.009Z,1029.12
2018-09-10T09:43:54.015Z,1029.09
2018-09-10T09:44:54.020Z,1029.12
2018-09-10T09:45:54.023Z,1029.05
2018-09-10T09:46:54.029Z,1029.04
2018-09-10T09:47:54.034Z,1028.99
2018-09-10T09:48:54.040Z,1028.98
2018-09-10T09:49:54.044Z,1028.93
2018-09-10T09:50:54.050Z,1028.88
2018-09-10T09:51:54.058Z,1028.83
2018-09-10T09:52:54.060Z,1028.87
2018-09-10T09:53:54.066Z,1028.87
2018-09-10T09:54:54.070Z,1028.82
2018-09-10T09:55:54.077Z,1028.79
2018-09-10T09:56:54.081Z,1028.83
2018-09-10T09:57:54.088Z,1028.78
2018-09-10T09:58:54.093Z,1028.83
2018-09-10T09:59:54.101Z,1028.79
2018-09-10T10:00:54.110Z,1028.79
2018-09-10T10:01:54.109Z,1028.75
2018-09-10T10:02:54.114Z,1028.7
2018-09-10T10:03:54.119Z,1028.68
2018-09-10T10:04:54.124Z,1028.68
2018-09-10T10:05:54.132Z,1028.67
2018-09-10T10:06:54.136Z,1028.62
2018-09-10T10:07:54.141Z,1028.65
2018-09-10T10:08:54.147Z,1028.7
2018-09-10T10:09:54.153Z,1028.67
2018-09-10T10:10:54.159Z,1028.7
2018-09-10T10:11:54.194Z,1028.64
2018-09-10T10:12:54.170Z,1028.6
2018-09-10T10:13:54.176Z,1028.62
2018-09-10T10:14:54.180Z,1028.67
2018-09-10T10:15:54.188Z,1028.65
2018-09-10T10:16:54.193Z,1028.67
2018-09-10T10:17:54.204Z,1028.67
2018-09-10T10:18:54.204Z,1028.68
2018-09-10T10:19:54.210Z,1028.69
2018-09-10T10:20:54.216Z,1028.66
2018-09-10T10:21:54.228Z,1028.66
2018-09-10T10:22:54.227Z,1028.7
2018-09-10T10:23:54.233Z,1028.69
2018-09-10T10:24:54.242Z,1028.68
2018-09-10T10:25:54.244Z,1028.67
2018-09-10T10:26:54.249Z,1028.67
2018-09-10T10:27:54.255Z,1028.7
2018-09-10T10:28:54.262Z,1028.69
2018-09-10T10:29:54.267Z,1028.66
2018-09-10T10:30:54.273Z,1028.67
2018-09-10T10:31:54.280Z,1028.63
2018-09-10T10:32:54.285Z,1028.67
2018-09-10T10:33:54.289Z,1028.69
2018-09-10T10:34:54.296Z,1028.74
2018-09-10T10:35:54.302Z,1028.7
2018-09-10T10:36:54.306Z,1028.77
2018-09-10T10:37:54.312Z,1028.79
2018-09-10T10:38:54.318Z,1028.8
2018-09-10T10:39:54.324Z,1028.89
2018-09-10T10:40:54.329Z,1028.85
2018-09-10T10:41:54.339Z,1028.86
2018-09-10T10:42:54.341Z,1028.87
2018-09-10T10:43:54.346Z,1028.91
2018-09-10T10:44:54.351Z,1028.98
2018-09-10T10:45:54.357Z,1028.99
2018-09-10T10:46:54.362Z,1029.06
2018-09-10T10:47:54.368Z,1029.15
2018-09-10T10:48:54.372Z,1029.15
2018-09-10T10:49:54.380Z,1029.18
2018-09-10T10:50:54.384Z,1029.22
2018-09-10T10:51:54.387Z,1029.21
2018-09-10T10:52:54.393Z,1029.26
2018-09-10T10:53:54.444Z,1029.2
2018-09-10T10:54:54.406Z,1029.25
2018-09-10T10:55:54.409Z,1029.25
2018-09-10T10:56:54.415Z,1029.22
2018-09-10T10:57:54.420Z,1029.2
2018-09-10T10:58:54.433Z,1029.23
2018-09-10T10:59:54.429Z,1029.23
2018-09-10T11:00:54.439Z,1029.24
2018-09-10T11:01:54.440Z,1029.25
2018-09-10T11:02:54.443Z,1029.29
2018-09-10T11:03:54.448Z,1029.27
2018-09-10T11:04:54.454Z,1029.21
2018-09-10T11:05:54.458Z,1029.27
2018-09-10T11:06:54.462Z,1029.19
2018-09-10T11:07:54.467Z,1029.14
2018-09-10T11:08:54.472Z,1029.14
2018-09-10T11:09:54.477Z,1029.19
2018-09-10T11:10:54.481Z,1029.17
2018-09-10T11:11:54.489Z,1029.2
2018-09-10T11:12:54.499Z,1029.19
2018-09-10T11:13:54.499Z,1029.17
2018-09-10T11:14:54.502Z,1029.17
2018-09-10T11:15:54.507Z,1029.16
2018-09-10T11:16:54.512Z,1029.15
2018-09-10T11:17:54.513Z,1029.12
2018-09-10T11:18:54.517Z,1029.11
2018-09-10T11:19:54.522Z,1029.13
2018-09-10T11:20:54.526Z,1029.05
2018-09-10T11:21:54.531Z,1029.06
2018-09-10T11:22:54.536Z,1029.12
2018-09-10T11:23:54.540Z,1029.14
2018-09-10T11:24:54.544Z,1029.11
2018-09-10T11:25:54.549Z,1029.15
2018-09-10T11:26:54.553Z,1029.12
2018-09-10T11:27:54.558Z,1029.1
2018-09-10T11:28:54.567Z,1029.09
2018-09-10T11:29:54.567Z,1029.05
2018-09-10T11:30:54.571Z,1029.04
2018-09-10T11:31:54.575Z,1028.99
2018-09-10T11:32:54.584Z,1028.97
2018-09-10T11:33:54.591Z,1028.94
2018-09-10T11:34:54.589Z,1028.89
2018-09-10T11:35:54.603Z,1028.88
2018-09-10T11:36:54.598Z,1028.81
2018-09-10T11:37:54.602Z,1028.83
2018-09-10T11:38:54.606Z,1028.82
2018-09-10T11:39:54.611Z,1028.81
2018-09-10T11:40:54.616Z,1028.82
2018-09-10T11:41:54.627Z,1028.84
2018-09-10T11:42:54.626Z,1028.83
2018-09-10T11:43:54.629Z,1028.79
2018-09-10T11:44:54.634Z,1028.8
2018-09-10T11:45:54.639Z,1028.77
2018-09-10T11:46:54.643Z,1028.74
2018-09-10T11:47:54.648Z,1028.8
2018-09-10T11:48:54.655Z,1028.79
2018-09-10T11:49:54.657Z,1028.81
2018-09-10T11:50:54.666Z,1028.86
2018-09-10T11:51:54.667Z,1028.94
2018-09-10T11:52:54.671Z,1029
2018-09-10T11:53:54.675Z,1029.03
2018-09-10T11:54:54.681Z,1029.14
2018-09-10T11:55:54.685Z,1029.13
2018-09-10T11:56:54.690Z,1029.21
2018-09-10T11:57:54.695Z,1029.25
2018-09-10T11:58:54.699Z,1029.35
2018-09-10T11:59:54.704Z,1029.33
2018-09-10T12:00:54.712Z,1029.34
2018-09-10T12:01:54.743Z,1029.31
2018-09-10T12:02:54.718Z,1029.34
2018-09-10T12:03:54.722Z,1029.31
2018-09-10T12:04:54.726Z,1029.26
2018-09-10T12:05:54.730Z,1029.21
2018-09-10T12:06:54.737Z,1029.27
2018-09-10T12:07:54.739Z,1029.3
2018-09-10T12:08:54.743Z,1029.3
2018-09-10T12:09:54.747Z,1029.22